Time;durP1;ratioP1;P1;durP2;ratioP2;P2;SDS_P1;SDS_P2;PMS_P1;PMS_P2;Temp;Humidity;BMP_temperature;BMP_pressure;BME280_temperature;BME280_humidity;BME280_pressure;Samples;Min_cycle;Max_cycle;Signal;HPM_P1;HPM_P2
2024/02/09 00:00:40;;;;;;;19.60;12.10;;;;;;;6.57;49.05;99212.66;108119;1257;72888;-67
2024/02/09 00:03:10;;;;;;;23.70;12.70;;;;;;;6.63;49.00;99213.66;108028;1253;60413;-66
2024/02/09 00:05:38;;;;;;;24.20;12.80;;;;;;;6.72;48.84;99210.56;108002;1253;60199;-65
2024/02/09 00:08:06;;;;;;;23.00;11.60;;;;;;;6.69;49.00;99210.49;107959;1253;72601;-66
2024/02/09 00:10:36;;;;;;;23.50;10.80;;;;;;;6.55;49.60;99207.70;107964;1253;68863;-65
2024/02/09 00:13:05;;;;;;;27.90;12.10;;;;;;;6.57;49.61;99204.98;108028;1253;71450;-66
2024/02/09 00:15:33;;;;;;;23.90;12.00;;;;;;;6.48;49.47;99200.93;108140;1254;60395;-65
2024/02/09 00:18:02;;;;;;;27.30;11.90;;;;;;;6.33;49.90;99195.20;108110;1253;60394;-65
2024/02/09 00:20:31;;;;;;;22.20;12.20;;;;;;;6.41;49.86;99192.63;108007;1253;72596;-65
2024/02/09 00:22:59;;;;;;;22.70;11.40;;;;;;;6.53;49.67;99197.42;107919;1253;70159;-65
2024/02/09 00:25:27;;;;;;;19.80;10.00;;;;;;;6.63;49.55;99196.39;108023;1253;72980;-65
2024/02/09 00:27:54;;;;;;;21.40;11.60;;;;;;;6.69;49.42;99193.40;108061;1253;60569;-66
2024/02/09 00:30:24;;;;;;;26.10;12.90;;;;;;;6.81;49.32;99187.02;108053;1253;60208;-66
2024/02/09 00:32:53;;;;;;;37.00;14.50;;;;;;;6.71;49.32;99184.09;108179;1254;72821;-66
2024/02/09 00:35:23;;;;;;;22.60;11.90;;;;;;;6.75;49.48;99185.50;108303;1252;69471;-65
2024/02/09 00:38:00;;;;;;;19.50;11.20;;;;;;;6.61;49.80;99182.69;108246;1253;72667;-65
2024/02/09 00:40:32;;;;;;;23.20;12.80;;;;;;;6.69;49.88;99177.18;108100;1254;60633;-65
2024/02/09 00:43:03;;;;;;;23.50;13.60;;;;;;;6.71;49.54;99177.61;108063;1252;60337;-65
2024/02/09 00:45:33;;;;;;;22.30;12.80;;;;;;;6.70;49.71;99172.77;108206;1252;73786;-66
2024/02/09 00:48:06;;;;;;;21.80;12.20;;;;;;;6.87;49.41;99164.30;108156;1251;69329;-66
2024/02/09 00:50:34;;;;;;;27.50;13.50;;;;;;;6.96;49.07;99165.88;108291;1256;73270;-66
2024/02/09 00:53:04;;;;;;;26.10;13.20;;;;;;;6.85;49.17;99164.19;108046;1253;61650;-66
2024/02/09 00:55:32;;;;;;;30.80;15.20;;;;;;;6.66;49.52;99157.90;108069;1253;60315;-67
2024/02/09 00:58:00;;;;;;;27.10;14.40;;;;;;;6.74;49.63;99160.20;108136;1253;73498;-64
2024/02/09 01:00:30;;;;;;;25.90;14.50;;;;;;;6.82;49.33;99157.83;108094;1253;68910;-66
2024/02/09 01:02:59;;;;;;;27.20;15.10;;;;;;;6.81;49.52;99154.39;108091;1252;71200;-66
2024/02/09 01:05:27;;;;;;;30.50;14.70;;;;;;;6.53;50.03;99149.30;108137;1254;61758;-67
2024/02/09 01:07:55;;;;;;;27.70;14.90;;;;;;;6.38;50.45;99148.80;108287;1257;60329;-66
2024/02/09 01:10:23;;;;;;;28.50;15.50;;;;;;;6.36;50.42;99142.08;108139;1253;72632;-65
2024/02/09 02:46:50;;;;;;;26.20;13.80;;;;;;;6.60;49.50;99069.54;107954;1254;73939;-64
2024/02/09 03:05:55;;;;;;;26.40;13.90;;;;;;;6.66;49.56;99061.45;107742;1256;71505;-65
2024/02/09 03:08:23;;;;;;;29.80;15.60;;;;;;;6.56;49.83;99059.02;107899;1256;61732;-67
2024/02/09 03:11:10;;;;;;;28.50;14.60;;;;;;;6.36;50.15;99060.67;107929;1254;60565;-66
2024/02/09 03:13:38;;;;;;;26.90;15.30;;;;;;;6.29;50.35;99057.27;107996;1254;72679;-65
2024/02/09 03:16:05;;;;;;;30.90;16.10;;;;;;;6.29;50.47;99057.95;107939;1254;70615;-66
2024/02/09 03:18:33;;;;;;;29.30;15.50;;;;;;;6.38;50.29;99051.54;107940;1254;72738;-66
2024/02/09 03:21:00;;;;;;;30.60;15.70;;;;;;;6.48;50.05;99047.48;107903;1258;60431;-64
2024/02/09 03:23:28;;;;;;;27.60;16.00;;;;;;;6.65;49.86;99048.27;108012;1256;60289;-66
2024/02/09 03:25:56;;;;;;;27.90;15.80;;;;;;;6.60;49.89;99048.27;107978;1258;72567;-64
2024/02/09 03:28:23;;;;;;;35.80;16.40;;;;;;;6.40;50.24;99043.44;107929;1256;69957;-66
2024/02/09 03:30:51;;;;;;;27.20;15.20;;;;;;;6.39;50.24;99039.81;107930;1256;70924;-68
2024/02/09 03:33:18;;;;;;;28.20;16.00;;;;;;;6.42;50.23;99038.48;107919;1259;60369;-66
2024/02/09 03:35:46;;;;;;;30.10;15.80;;;;;;;6.28;50.54;99037.77;107915;1255;60403;-66
2024/02/09 03:38:13;;;;;;;24.80;13.80;;;;;;;6.32;50.22;99030.48;107911;1256;71851;-66
2024/02/09 03:40:42;;;;;;;32.00;15.90;;;;;;;6.16;50.70;99031.92;107900;1256;70307;-67
2024/02/09 03:43:10;;;;;;;30.20;16.20;;;;;;;6.21;50.63;99030.52;107714;1254;72962;-66
2024/02/09 03:45:41;;;;;;;24.00;13.70;;;;;;;6.29;50.28;99025.70;107937;1256;60674;-66
2024/02/09 03:48:09;;;;;;;29.90;15.30;;;;;;;6.48;50.01;99020.96;107951;1254;60196;-65
2024/02/09 03:50:37;;;;;;;28.90;14.80;;;;;;;6.69;49.40;99014.41;107992;1254;72573;-67
2024/02/09 03:53:06;;;;;;;24.90;14.30;;;;;;;6.72;49.38;99020.77;107964;1255;69987;-67
2024/02/09 03:55:41;;;;;;;27.10;15.50;;;;;;;6.62;49.58;99017.31;107871;1254;72901;-66
2024/02/09 03:58:09;;;;;;;27.10;14.10;;;;;;;6.62;49.48;99007.19;107940;1256;60383;-66
2024/02/09 04:00:36;;;;;;;26.20;15.80;;;;;;;6.53;49.85;99005.30;107925;1258;60343;-65
2024/02/09 04:03:04;;;;;;;30.00;15.60;;;;;;;6.46;49.97;99004.31;107936;1254;73924;-66
2024/02/09 04:05:32;;;;;;;22.90;13.70;;;;;;;6.37;50.19;99001.52;107883;1255;68024;-66
2024/02/09 04:08:03;;;;;;;26.10;14.60;;;;;;;6.18;50.57;99003.62;107901;1255;72693;-66
2024/02/09 04:10:30;;;;;;;16.40;9.60;;;;;;;6.11;50.45;99006.48;107901;1256;60395;-65
2024/02/09 04:13:12;;;;;;;24.70;12.20;;;;;;;6.21;50.17;99004.59;107936;1254;60510;-64
2024/02/09 04:15:41;;;;;;;25.40;14.00;;;;;;;6.23;50.19;99001.69;108030;1256;73892;-65
2024/02/09 04:18:09;;;;;;;28.80;14.60;;;;;;;6.23;50.36;99001.70;107905;1256;69270;-65
2024/02/09 04:20:37;;;;;;;25.80;13.90;;;;;;;6.16;50.58;99002.30;107972;1256;72675;-66
2024/02/09 04:23:07;;;;;;;28.80;14.70;;;;;;;5.98;50.95;99001.04;107871;1256;62198;-65
2024/02/09 04:25:36;;;;;;;33.20;16.50;;;;;;;5.92;51.33;98999.69;107873;1254;60504;-64
2024/02/09 04:28:04;;;;;;;31.80;15.90;;;;;;;6.02;50.98;99004.19;107869;1256;72821;-65
2024/02/09 04:30:32;;;;;;;24.00;13.10;;;;;;;6.01;51.01;99006.48;107909;1256;69177;-65
2024/02/09 04:33:00;;;;;;;26.80;14.30;;;;;;;6.01;51.05;99006.84;107928;1258;72724;-66
2024/02/09 04:35:28;;;;;;;25.70;12.80;;;;;;;5.99;51.00;99007.45;107944;1254;61729;-66
2024/02/09 04:37:55;;;;;;;20.30;11.90;;;;;;;5.94;51.15;99004.15;107973;1254;60357;-66
2024/02/09 04:40:22;;;;;;;21.50;11.90;;;;;;;6.01;50.85;99001.80;107942;1256;73959;-65
2024/02/09 04:42:50;;;;;;;23.20;12.20;;;;;;;6.02;50.96;99004.05;107941;1255;70074;-65
2024/02/09 04:45:17;;;;;;;18.10;10.20;;;;;;;6.03;50.92;99006.62;107962;1256;72375;-65
2024/02/09 04:47:45;;;;;;;25.10;13.50;;;;;;;6.04;50.80;99004.14;107996;1255;60874;-66
2024/02/09 04:50:13;;;;;;;29.00;14.50;;;;;;;6.20;50.41;99002.17;107891;1254;60255;-65
2024/02/09 04:52:40;;;;;;;28.10;13.40;;;;;;;6.30;50.38;99000.38;107999;1255;73900;-66
2024/02/09 04:55:10;;;;;;;31.30;15.00;;;;;;;6.29;50.44;99001.28;107944;1254;69153;-67
2024/02/09 04:57:38;;;;;;;36.90;16.40;;;;;;;6.23;50.51;99005.91;107971;1255;71414;-66
2024/02/09 05:00:07;;;;;;;24.80;13.90;;;;;;;6.21;50.53;99001.80;107885;1255;61815;-66
2024/02/09 05:02:34;;;;;;;25.70;13.20;;;;;;;6.30;50.19;99002.30;107922;1254;60239;-66
2024/02/09 05:05:02;;;;;;;27.30;14.50;;;;;;;6.10;50.35;98999.05;107922;1256;73841;-66
2024/02/09 05:07:30;;;;;;;31.50;16.30;;;;;;;6.05;50.61;98999.24;107912;1256;69330;-66
2024/02/09 05:09:57;;;;;;;26.60;14.00;;;;;;;6.08;50.49;98999.11;107920;1254;72683;-66
2024/02/09 05:12:25;;;;;;;25.60;14.10;;;;;;;6.20;50.21;98995.71;107869;1253;61651;-65
2024/02/09 05:14:54;;;;;;;26.80;13.50;;;;;;;6.07;50.31;98995.15;107950;1254;60097;-66
2024/02/09 05:17:22;;;;;;;27.80;14.20;;;;;;;6.17;50.16;98996.17;107920;1258;72533;-66
2024/02/09 05:19:57;;;;;;;28.10;14.10;;;;;;;6.18;49.89;98990.23;107912;1258;69024;-67
2024/02/09 05:22:27;;;;;;;24.30;13.60;;;;;;;6.29;49.63;98993.64;107933;1256;72881;-66
2024/02/09 05:24:56;;;;;;;22.50;12.80;;;;;;;6.31;49.79;98997.05;107951;1255;61820;-65
2024/02/09 05:27:24;;;;;;;24.10;12.30;;;;;;;6.32;49.53;98998.58;107915;1256;60002;-65
2024/02/09 05:29:52;;;;;;;20.90;11.40;;;;;;;6.37;49.41;99003.77;107947;1256;73156;-66
2024/02/09 05:32:22;;;;;;;25.50;13.40;;;;;;;6.31;49.44;99005.05;107952;1256;70427;-65
2024/02/09 05:34:51;;;;;;;30.10;14.40;;;;;;;6.38;49.36;99011.44;108061;1255;71453;-66
2024/02/09 05:37:20;;;;;;;24.00;13.50;;;;;;;6.37;49.25;99015.11;107993;1256;62445;-66
2024/02/09 05:39:47;;;;;;;24.80;13.60;;;;;;;6.25;49.58;99010.17;107947;1254;60342;-66
2024/02/09 05:42:15;;;;;;;25.30;13.30;;;;;;;6.19;49.77;99001.48;107950;1253;74024;-66
2024/02/09 05:44:43;;;;;;;25.50;13.60;;;;;;;6.03;50.04;98997.36;108054;1253;70822;-66
2024/02/09 05:47:11;;;;;;;30.30;14.60;;;;;;;6.05;50.24;98996.27;108099;1253;72767;-66
2024/02/09 05:49:38;;;;;;;27.60;14.90;;;;;;;6.06;50.10;98996.75;107900;1255;61731;-66
2024/02/09 05:52:07;;;;;;;27.80;12.40;;;;;;;6.08;50.04;98998.77;108022;1253;60444;-66
2024/02/09 05:54:35;;;;;;;23.60;12.40;;;;;;;6.00;50.07;99000.98;107908;1253;72954;-67
2024/02/09 05:57:03;;;;;;;21.90;11.80;;;;;;;5.95;50.18;98997.83;107954;1253;70628;-67
2024/02/09 05:59:30;;;;;;;21.30;10.70;;;;;;;5.95;50.17;99002.17;107918;1253;72783;-65
2024/02/09 06:01:58;;;;;;;22.30;12.50;;;;;;;5.81;50.46;99007.20;107945;1256;60469;-66
2024/02/09 06:04:26;;;;;;;24.00;12.50;;;;;;;5.84;50.48;99010.75;107959;1253;60287;-66
2024/02/09 06:06:54;;;;;;;25.40;13.30;;;;;;;5.81;50.71;99009.98;107961;1253;72659;-67
2024/02/09 06:09:22;;;;;;;23.10;11.80;;;;;;;5.78;50.63;99008.18;108032;1253;69298;-67
2024/02/09 06:11:50;;;;;;;25.20;13.50;;;;;;;5.81;50.47;99010.35;107946;1253;71399;-67
2024/02/09 06:14:17;;;;;;;20.60;11.90;;;;;;;5.89;50.66;99006.94;107979;1254;61733;-66
2024/02/09 06:16:45;;;;;;;21.50;11.80;;;;;;;5.92;50.16;99003.85;108034;1254;60818;-65
2024/02/09 06:19:13;;;;;;;19.60;11.50;;;;;;;6.00;50.08;98999.40;108007;1253;73824;-66
2024/02/09 06:21:41;;;;;;;22.10;10.90;;;;;;;5.84;50.16;98997.19;107924;1253;69090;-66
2024/02/09 06:24:08;;;;;;;19.00;11.00;;;;;;;5.95;50.17;98999.05;107941;1256;71804;-66
2024/02/09 06:26:36;;;;;;;23.60;11.50;;;;;;;6.03;49.97;99009.40;107958;1253;61690;-65
2024/02/09 06:29:03;;;;;;;21.80;11.70;;;;;;;6.05;50.11;99007.94;108025;1259;60118;-65
2024/02/09 06:31:31;;;;;;;25.70;12.80;;;;;;;6.15;50.01;99002.37;108007;1253;72949;-67
2024/02/09 06:33:59;;;;;;;30.30;13.30;;;;;;;6.14;49.99;98998.03;108125;1255;69918;-66
2024/02/09 06:36:27;;;;;;;28.60;12.30;;;;;;;6.07;50.03;98991.98;108114;1254;72627;-66
2024/02/09 06:38:55;;;;;;;21.90;12.10;;;;;;;6.16;49.72;98992.73;108109;1257;61761;-66
2024/02/09 06:41:22;;;;;;;23.60;12.50;;;;;;;6.00;49.80;98998.53;108209;1254;60210;-66
2024/02/09 06:43:51;;;;;;;22.20;11.20;;;;;;;6.07;49.70;98996.01;108189;1253;72814;-66
2024/02/09 06:46:19;;;;;;;23.00;12.00;;;;;;;6.13;49.34;98991.80;108103;1254;70893;-65
2024/02/09 06:51:57;;;;;;;28.10;14.60;;;;;;;3.44;56.09;98998.41;104695;1292;605015;-66
2024/02/09 06:54:26;;;;;;;29.20;14.00;;;;;;;4.36;53.80;98997.46;107253;1266;59529;-66
2024/02/09 06:56:55;;;;;;;25.10;13.10;;;;;;;4.49;53.50;99001.80;107357;1266;59115;-66
2024/02/09 06:59:23;;;;;;;25.40;14.00;;;;;;;4.69;53.04;99006.21;107328;1266;72314;-66
2024/02/09 07:01:49;;;;;;;25.30;12.20;;;;;;;4.52;53.20;99004.15;107299;1266;68569;-66
2024/02/09 07:04:18;;;;;;;25.20;11.50;;;;;;;4.57;53.23;98995.65;107190;1266;153290;-67
2024/02/09 07:06:48;;;;;;;25.40;11.60;;;;;;;4.73;52.69;98992.88;107371;1266;62028;-67
2024/02/09 07:09:18;;;;;;;21.10;10.60;;;;;;;4.59;53.11;98986.35;107395;1265;60151;-64
2024/02/09 07:12:03;;;;;;;26.60;12.00;;;;;;;4.69;52.76;98981.17;107353;1264;72397;-65
2024/02/09 07:14:31;;;;;;;18.60;9.60;;;;;;;4.68;52.78;98983.30;107373;1266;68837;-67
2024/02/09 07:16:58;;;;;;;134.60;58.30;;;;;;;4.73;52.56;98982.08;107420;1264;73250;-65
2024/02/09 07:19:24;;;;;;;36.50;16.10;;;;;;;4.75;52.74;98983.41;107993;1256;61945;-66
2024/02/09 07:21:51;;;;;;;79.80;29.50;;;;;;;4.81;52.46;98987.92;108060;1254;60412;-66
2024/02/09 07:24:18;;;;;;;50.70;20.70;;;;;;;4.85;52.46;98989.20;108030;1254;73555;-67
2024/02/09 07:26:44;;;;;;;38.90;15.90;;;;;;;4.90;52.48;98986.06;108011;1257;69090;-67
2024/02/09 07:29:11;;;;;;;29.80;13.10;;;;;;;4.95;52.14;98986.80;107996;1259;73207;-65
2024/02/09 07:31:38;;;;;;;23.00;11.30;;;;;;;4.83;52.50;98986.13;107910;1254;61951;-66
2024/02/09 07:34:06;;;;;;;28.00;12.80;;;;;;;4.80;52.24;98986.39;107960;1256;59097;-67
2024/02/09 07:36:34;;;;;;;34.90;13.30;;;;;;;4.80;52.25;98982.92;107983;1259;73101;-67
2024/02/09 07:39:01;;;;;;;18.60;10.80;;;;;;;4.83;52.12;98977.27;107873;1256;69200;-66
2024/02/09 07:41:30;;;;;;;28.20;12.60;;;;;;;4.75;52.28;98977.68;107862;1256;73072;-66
2024/02/09 07:43:56;;;;;;;23.10;9.30;;;;;;;4.79;52.22;98970.09;107917;1256;61667;-67
2024/02/09 07:46:24;;;;;;;29.40;14.00;;;;;;;4.99;51.93;98976.58;107871;1256;60220;-67
2024/02/09 07:48:51;;;;;;;29.10;13.40;;;;;;;4.97;52.05;98969.86;107841;1256;72742;-66
2024/02/09 07:51:20;;;;;;;23.60;12.10;;;;;;;5.11;51.67;98965.73;107906;1256;69071;-67
2024/02/09 07:53:52;;;;;;;26.60;12.20;;;;;;;5.21;51.36;98963.12;107923;1256;72051;-67
2024/02/09 07:56:23;;;;;;;26.40;12.40;;;;;;;5.07;51.64;98958.92;108125;1256;61955;-66
2024/02/09 07:58:50;;;;;;;28.80;11.10;;;;;;;5.07;51.61;98955.27;108163;1258;60669;-66
2024/02/09 08:01:21;;;;;;;18.50;10.60;;;;;;;4.95;51.70;98961.20;108125;1254;72859;-66
2024/02/09 08:03:49;;;;;;;27.80;13.30;;;;;;;4.97;51.73;98974.38;108067;1254;70667;-66
2024/02/09 08:06:16;;;;;;;27.10;12.00;;;;;;;4.95;51.67;98969.58;108072;1258;71124;-66
2024/02/09 08:08:44;;;;;;;33.00;13.10;;;;;;;5.06;51.41;98973.53;108074;1256;61923;-65
2024/02/09 08:11:11;;;;;;;52.60;17.00;;;;;;;5.12;51.42;98974.75;108057;1254;60821;-66
2024/02/09 08:13:39;;;;;;;25.70;11.90;;;;;;;5.21;51.31;98974.27;108008;1254;73405;-65
2024/02/09 08:16:06;;;;;;;23.90;12.50;;;;;;;5.45;50.87;98968.77;108035;1254;70875;-66
2024/02/09 08:18:33;;;;;;;32.30;15.50;;;;;;;5.59;50.53;98970.70;108069;1253;73328;-66
2024/02/09 08:21:00;;;;;;;22.70;12.80;;;;;;;5.57;50.41;98974.79;108116;1254;62093;-65
2024/02/09 08:23:27;;;;;;;26.80;12.90;;;;;;;5.48;50.41;98979.27;108090;1253;61339;-65
2024/02/09 08:25:54;;;;;;;31.30;13.30;;;;;;;5.51;50.26;98980.21;108123;1253;71543;-65
2024/02/09 08:28:21;;;;;;;25.00;11.90;;;;;;;5.59;50.27;98983.44;108094;1253;70691;-66
2024/02/09 08:30:48;;;;;;;24.80;11.40;;;;;;;5.72;49.80;98984.20;108193;1256;72449;-66
2024/02/09 08:33:15;;;;;;;29.80;12.60;;;;;;;5.65;49.95;98982.88;108129;1254;61994;-66
2024/02/09 08:35:42;;;;;;;38.10;14.90;;;;;;;5.72;49.85;98984.16;108137;1253;60305;-67
2024/02/09 08:38:08;;;;;;;24.10;11.60;;;;;;;5.60;50.24;98991.55;108128;1253;73105;-66
2024/02/09 08:40:35;;;;;;;29.60;12.00;;;;;;;5.66;50.05;98988.05;108114;1255;70460;-66
2024/02/09 08:43:02;;;;;;;23.70;11.30;;;;;;;5.73;49.70;98984.67;108109;1254;73566;-66
2024/02/09 08:45:29;;;;;;;35.70;12.60;;;;;;;5.64;49.91;98982.55;108146;1253;61864;-67
2024/02/09 08:47:56;;;;;;;15.80;9.00;;;;;;;5.65;49.79;98980.95;108182;1253;59750;-64
2024/02/09 08:50:23;;;;;;;23.90;9.90;;;;;;;5.57;49.82;98980.02;108250;1253;73332;-66
2024/02/09 08:52:50;;;;;;;23.10;11.10;;;;;;;5.50;49.95;98979.03;108125;1254;70388;-67
2024/02/09 08:55:17;;;;;;;29.10;13.80;;;;;;;5.51;49.96;98989.11;108086;1258;72685;-68
2024/02/09 08:57:43;;;;;;;25.40;12.10;;;;;;;5.54;50.17;98984.46;108156;1254;62197;-66
2024/02/09 09:00:11;;;;;;;20.00;10.50;;;;;;;5.47;50.11;98981.92;108104;1255;59750;-66
2024/02/09 09:02:38;;;;;;;17.60;9.20;;;;;;;5.53;49.91;98978.59;108210;1254;70645;-65
2024/02/09 09:05:07;;;;;;;16.80;9.00;;;;;;;5.40;50.01;98975.89;108142;1257;71008;-66
2024/02/09 09:07:35;;;;;;;17.80;9.10;;;;;;;5.51;50.18;98971.15;107959;1255;72524;-66
2024/02/09 09:10:05;;;;;;;19.20;10.40;;;;;;;5.62;49.65;98968.16;108102;1253;61951;-65
2024/02/09 09:12:35;;;;;;;17.00;8.40;;;;;;;5.76;49.70;98966.27;108169;1255;60009;-66
2024/02/09 09:15:04;;;;;;;15.80;9.10;;;;;;;5.66;49.79;98975.34;108115;1254;72894;-64
2024/02/09 09:17:31;;;;;;;16.70;9.30;;;;;;;5.63;49.54;98977.70;108136;1255;70386;-66
2024/02/09 09:19:58;;;;;;;22.50;11.90;;;;;;;5.62;49.92;98983.67;108129;1254;72323;-64
2024/02/09 09:22:25;;;;;;;21.20;9.80;;;;;;;5.65;49.67;98990.33;108156;1255;61922;-67
2024/02/09 09:24:52;;;;;;;16.20;8.90;;;;;;;5.85;49.30;98993.83;108087;1253;60142;-67
2024/02/09 09:27:19;;;;;;;21.90;9.70;;;;;;;5.79;49.47;98994.73;108109;1256;73139;-67
2024/02/09 09:29:46;;;;;;;23.80;11.70;;;;;;;5.78;49.41;98991.97;108133;1254;70400;-66
2024/02/09 09:32:12;;;;;;;21.80;10.50;;;;;;;5.83;49.28;98996.67;108173;1254;72708;-67
2024/02/09 09:34:41;;;;;;;22.70;10.80;;;;;;;5.91;49.46;98996.75;108114;1257;61759;-67
2024/02/09 09:37:08;;;;;;;21.20;10.20;;;;;;;5.99;49.25;98994.55;108153;1254;60672;-65
2024/02/09 09:39:35;;;;;;;22.30;10.90;;;;;;;6.11;49.19;98994.30;108100;1256;72373;-66
2024/02/09 09:42:03;;;;;;;25.70;11.00;;;;;;;6.11;49.19;98993.10;108091;1254;70168;-67
2024/02/09 09:44:31;;;;;;;20.50;10.70;;;;;;;6.10;48.83;98985.44;108085;1257;72883;-65
2024/02/09 09:46:58;;;;;;;24.00;11.70;;;;;;;6.09;48.89;98984.44;108111;1257;61143;-67
2024/02/09 09:49:28;;;;;;;22.30;10.90;;;;;;;6.34;48.55;98992.02;108063;1257;60288;-66
2024/02/09 09:51:58;;;;;;;25.10;13.00;;;;;;;6.37;48.42;98991.77;108139;1253;73133;-65
2024/02/09 09:54:31;;;;;;;23.10;11.40;;;;;;;6.43;48.30;98989.63;108165;1254;70882;-66
2024/02/09 09:56:59;;;;;;;20.40;10.70;;;;;;;6.41;48.24;98985.69;108085;1256;72343;-67
2024/02/09 09:59:26;;;;;;;17.50;9.90;;;;;;;6.32;48.29;98982.20;108107;1255;61946;-67
2024/02/09 10:01:53;;;;;;;21.10;10.70;;;;;;;6.12;48.43;98981.20;108067;1255;60388;-66
2024/02/09 10:04:20;;;;;;;25.80;11.90;;;;;;;6.32;48.34;98975.73;108138;1254;74110;-67
2024/02/09 10:06:47;;;;;;;43.50;18.30;;;;;;;6.36;48.44;98976.47;108107;1254;70088;-66
2024/02/09 10:09:16;;;;;;;38.70;18.10;;;;;;;6.37;48.37;98978.50;108099;1255;72752;-66
2024/02/09 10:11:45;;;;;;;21.40;10.30;;;;;;;6.39;48.46;98977.21;108067;1254;62119;-66
2024/02/09 10:14:15;;;;;;;19.40;9.70;;;;;;;6.32;48.23;98978.54;108125;1254;60556;-65
2024/02/09 10:16:44;;;;;;;;;;;;;;;6.41;48.20;98975.20;108203;1254;72961;-67
2024/02/09 10:19:13;;;;;;;17.30;9.20;;;;;;;6.32;48.19;98980.95;108150;1254;70845;-66
2024/02/09 10:21:40;;;;;;;17.20;9.50;;;;;;;6.29;48.38;98982.46;108111;1257;71732;-67
2024/02/09 10:24:19;;;;;;;22.70;11.00;;;;;;;6.59;47.88;98987.63;108096;1254;60616;-67
2024/02/09 10:26:46;;;;;;;18.10;9.60;;;;;;;6.64;47.90;98993.69;108174;1253;61683;-67
2024/02/09 10:29:14;;;;;;;18.60;8.60;;;;;;;6.71;47.88;99005.47;108130;1259;72402;-66
2024/02/09 10:31:41;;;;;;;18.50;9.40;;;;;;;6.59;47.97;99005.58;108138;1254;71478;-66
2024/02/09 10:34:08;;;;;;;16.40;8.80;;;;;;;6.55;47.93;99010.99;108131;1256;73870;-66
2024/02/09 10:36:38;;;;;;;15.30;8.30;;;;;;;6.54;47.83;99012.91;108226;1256;62904;-66
2024/02/09 10:39:05;;;;;;;15.30;8.50;;;;;;;6.56;47.78;99010.41;108159;1254;60632;-67
2024/02/09 10:41:31;;;;;;;13.70;7.10;;;;;;;6.45;47.85;99010.25;108185;1256;72935;-67
2024/02/09 10:43:58;;;;;;;13.60;7.50;;;;;;;6.40;47.76;99002.45;108081;1253;71710;-66
2024/02/09 10:46:27;;;;;;;14.70;8.50;;;;;;;6.41;47.83;98997.55;108103;1254;72506;-67
2024/02/09 10:48:57;;;;;;;12.50;7.00;;;;;;;6.49;47.78;98997.55;108108;1253;61956;-66
2024/02/09 10:51:28;;;;;;;12.60;7.40;;;;;;;6.59;47.59;98992.67;107950;1254;60385;-67
2024/02/09 10:54:22;;;;;;;14.70;8.40;;;;;;;6.47;47.62;98989.12;108081;1253;73154;-67
2024/02/09 10:56:50;;;;;;;15.80;8.40;;;;;;;6.55;47.43;98984.62;108106;1254;70468;-67
2024/02/09 10:59:22;;;;;;;18.30;8.50;;;;;;;6.49;47.81;98979.77;107949;1256;72748;-66
2024/02/09 11:01:50;;;;;;;16.50;8.10;;;;;;;6.55;47.81;98980.45;108045;1254;61891;-66
2024/02/09 11:04:17;;;;;;;14.90;8.10;;;;;;;6.50;47.65;98979.41;108133;1253;60281;-66
2024/02/09 11:06:44;;;;;;;18.90;8.90;;;;;;;6.52;47.47;98975.85;108081;1254;73757;-67
2024/02/09 11:09:11;;;;;;;18.60;9.20;;;;;;;6.54;47.73;98979.96;108169;1256;69142;-66
2024/02/09 11:11:44;;;;;;;16.50;8.30;;;;;;;6.82;47.22;98985.48;107989;1254;73933;-66
2024/02/09 11:14:11;;;;;;;13.80;8.40;;;;;;;6.81;47.13;98981.50;108106;1254;62503;-65
2024/02/09 11:16:48;;;;;;;18.60;9.30;;;;;;;6.80;47.02;98978.92;108091;1254;60452;-66
2024/02/09 11:19:16;;;;;;;19.40;9.30;;;;;;;6.86;47.02;98979.91;108077;1254;74890;-68
2024/02/09 11:21:55;;;;;;;17.60;8.90;;;;;;;6.76;47.24;98975.95;108036;1254;69356;-66
2024/02/09 11:24:25;;;;;;;15.50;8.00;;;;;;;6.62;47.17;98973.00;108023;1254;72862;-66
2024/02/09 11:26:52;;;;;;;16.10;8.60;;;;;;;6.69;47.25;98978.33;108055;1254;61265;-66
2024/02/09 11:29:19;;;;;;;15.90;8.20;;;;;;;6.75;47.08;98973.71;108049;1253;60482;-67
2024/02/09 11:31:50;;;;;;;17.40;8.40;;;;;;;6.81;46.87;98970.86;108053;1258;73930;-66
2024/02/09 11:34:18;;;;;;;18.00;9.70;;;;;;;6.98;46.41;98976.63;108079;1260;69971;-67
2024/02/09 11:36:45;;;;;;;18.40;8.60;;;;;;;6.99;46.75;98982.88;108115;1254;70886;-66
2024/02/09 11:39:12;;;;;;;15.20;8.70;;;;;;;6.74;47.02;98983.67;108094;1253;60919;-67
2024/02/09 11:41:39;;;;;;;18.60;8.90;;;;;;;6.59;47.53;98988.32;108117;1254;60315;-67
2024/02/09 11:44:09;;;;;;;15.10;8.40;;;;;;;6.58;47.69;98998.82;108173;1254;72980;-67
2024/02/09 11:46:37;;;;;;;16.40;9.60;;;;;;;6.72;47.47;99000.19;108174;1254;70389;-66
2024/02/09 11:49:06;;;;;;;14.80;8.40;;;;;;;6.86;47.29;99001.73;108130;1254;72771;-66
2024/02/09 11:51:34;;;;;;;18.10;9.00;;;;;;;6.90;47.49;99003.28;108086;1257;60293;-67
2024/02/09 11:54:04;;;;;;;21.10;10.00;;;;;;;6.95;47.19;99001.70;108031;1253;61598;-66
2024/02/09 11:56:35;;;;;;;20.90;10.60;;;;;;;7.07;46.97;98996.33;108033;1253;73904;-65
2024/02/09 11:59:05;;;;;;;19.80;9.80;;;;;;;7.17;46.76;99002.58;108151;1254;71565;-64
2024/02/09 12:01:32;;;;;;;10.60;6.20;;;;;;;7.16;46.92;99006.46;108084;1253;72804;-67
2024/02/09 12:03:59;;;;;;;16.60;8.60;;;;;;;7.16;46.94;99010.96;108052;1257;61198;-66
2024/02/09 12:06:27;;;;;;;18.10;8.80;;;;;;;7.02;47.05;99012.45;108058;1256;60457;-66
2024/02/09 12:08:58;;;;;;;14.50;8.60;;;;;;;7.06;46.99;99013.14;108067;1253;75368;-66
2024/02/09 12:11:24;;;;;;;;;;;;;;;7.13;46.88;99011.97;108042;1255;69920;-67
2024/02/09 12:13:51;;;;;;;16.20;9.20;;;;;;;7.16;46.87;99010.81;108039;1257;72764;-67
2024/02/09 12:16:19;;;;;;;22.10;9.70;;;;;;;7.14;47.17;99014.20;108028;1256;61155;-67
2024/02/09 12:18:51;;;;;;;21.60;11.60;;;;;;;7.12;47.15;99011.52;108069;1253;60368;-67
2024/02/09 12:21:18;;;;;;;15.70;9.10;;;;;;;7.02;47.37;99009.65;108057;1254;72636;-66
2024/02/09 12:23:45;;;;;;;21.70;9.60;;;;;;;7.21;47.17;99018.48;108077;1254;70424;-67
2024/02/09 12:26:14;;;;;;;17.60;9.60;;;;;;;7.22;47.03;99020.01;108016;1254;73099;-66
2024/02/09 12:28:40;;;;;;;18.40;9.70;;;;;;;7.09;47.35;99020.33;108054;1253;61210;-67
2024/02/09 12:31:08;;;;;;;22.00;11.40;;;;;;;7.09;47.63;99033.79;108127;1254;59491;-66
2024/02/09 12:33:42;;;;;;;23.10;10.50;;;;;;;7.19;47.13;99035.98;108037;1254;75137;-66
2024/02/09 12:36:09;;;;;;;20.30;11.70;;;;;;;7.15;47.30;99030.74;108055;1253;69329;-66
2024/02/09 12:38:40;;;;;;;18.50;10.10;;;;;;;6.91;47.93;99034.50;108013;1253;73708;-66
2024/02/09 12:41:12;;;;;;;22.40;10.20;;;;;;;6.91;47.87;99031.34;108060;1254;61206;-67
2024/02/09 12:43:39;;;;;;;25.80;13.50;;;;;;;6.95;48.09;99032.42;107863;1253;60490;-66
2024/02/09 12:46:06;;;;;;;22.60;12.00;;;;;;;6.90;48.21;99031.73;108072;1253;72727;-67
2024/02/09 12:48:36;;;;;;;24.80;11.60;;;;;;;6.85;48.08;99030.35;108148;1253;70311;-67
2024/02/09 12:51:05;;;;;;;23.10;12.40;;;;;;;6.81;48.41;99036.65;108052;1257;71182;-67
2024/02/09 12:53:35;;;;;;;20.80;11.80;;;;;;;6.81;48.68;99042.90;108166;1253;61168;-66
2024/02/09 12:56:02;;;;;;;20.90;11.40;;;;;;;7.04;48.16;99050.40;108089;1253;60405;-67
2024/02/09 12:58:31;;;;;;;26.30;11.80;;;;;;;6.85;48.43;99051.13;108122;1254;73616;-66
2024/02/09 13:00:59;;;;;;;26.80;13.40;;;;;;;6.83;48.65;99060.81;108042;1253;70070;-64
2024/02/09 13:03:29;;;;;;;28.60;13.70;;;;;;;6.72;48.98;99064.55;108042;1254;72619;-66
2024/02/09 13:05:59;;;;;;;30.50;14.20;;;;;;;6.64;49.23;99060.48;108088;1253;62916;-67
2024/02/09 13:08:29;;;;;;;27.20;13.30;;;;;;;6.61;49.39;99060.25;108084;1257;60427;-67
2024/02/09 13:10:55;;;;;;;29.90;14.00;;;;;;;6.70;49.29;99060.08;108062;1254;73686;-67
2024/02/09 13:13:25;;;;;;;26.50;13.40;;;;;;;6.66;49.30;99059.55;108066;1254;70161;-65
2024/02/09 13:15:52;;;;;;;22.00;12.00;;;;;;;6.69;49.46;99055.59;108110;1253;73013;-65
2024/02/09 13:18:19;;;;;;;28.00;14.00;;;;;;;6.78;49.19;99054.71;108120;1253;62123;-66